createdAt,value
2018-10-21T00:01:33.212Z,8.69
2018-10-21T00:04:02.000Z,8.75
2018-10-21T00:06:31.087Z,8.85
2018-10-21T00:08:59.822Z,8.99
2018-10-21T00:11:28.467Z,9.08
2018-10-21T00:13:57.139Z,9.18
2018-10-21T00:16:26.045Z,9.23
2018-10-21T00:18:54.653Z,9.30
2018-10-21T00:21:23.358Z,9.38
2018-10-21T00:23:52.164Z,9.46
2018-10-21T00:26:20.807Z,9.54
2018-10-21T00:28:49.277Z,9.59
2018-10-21T00:31:17.988Z,9.66
2018-10-21T00:33:46.650Z,9.70
2018-10-21T00:36:15.646Z,9.75
2018-10-21T00:38:44.342Z,9.79
2018-10-21T00:41:12.974Z,9.85
2018-10-21T00:43:41.691Z,9.91
2018-10-21T00:46:10.670Z,9.95
2018-10-21T00:48:39.489Z,9.99
2018-10-21T00:51:08.216Z,10.05
2018-10-21T00:53:36.740Z,10.11
2018-10-21T00:56:05.786Z,10.20
2018-10-21T00:58:34.320Z,10.31
2018-10-21T01:01:03.167Z,10.38
2018-10-21T01:03:31.904Z,10.36
2018-10-21T01:06:00.523Z,10.35
2018-10-21T01:08:29.284Z,10.31
2018-10-21T01:10:58.174Z,10.42
2018-10-21T01:13:26.798Z,10.43
2018-10-21T01:15:55.566Z,10.47
2018-10-21T01:18:24.326Z,10.56
2018-10-21T01:20:52.842Z,10.60
2018-10-21T01:23:21.661Z,10.66
2018-10-21T01:25:50.272Z,10.65
2018-10-21T01:28:18.875Z,10.64
2018-10-21T01:30:47.522Z,10.58
2018-10-21T01:33:16.178Z,10.58
2018-10-21T01:35:44.590Z,10.61
2018-10-21T01:38:13.313Z,10.67
2018-10-21T01:40:48.819Z,10.63
2018-10-21T01:43:18.595Z,10.63
2018-10-21T01:45:47.286Z,10.66
2018-10-21T01:48:17.099Z,10.69
2018-10-21T01:50:45.826Z,10.71
2018-10-21T01:53:15.406Z,10.72
2018-10-21T01:55:44.299Z,10.71
2018-10-21T01:58:13.032Z,10.74
2018-10-21T02:00:42.200Z,10.77
2018-10-21T02:03:11.294Z,10.77
2018-10-21T02:05:40.439Z,10.77
2018-10-21T02:08:09.052Z,10.77
2018-10-21T02:10:37.610Z,10.73
2018-10-21T02:13:06.484Z,10.72
2018-10-21T02:15:36.082Z,10.76
2018-10-21T02:18:04.681Z,10.72
2018-10-21T02:20:33.341Z,10.74
2018-10-21T02:23:01.876Z,10.70
2018-10-21T02:25:30.528Z,10.58
2018-10-21T02:27:59.188Z,10.59
2018-10-21T02:30:29.011Z,10.63
2018-10-21T02:32:58.356Z,10.64
2018-10-21T02:35:26.874Z,10.67
2018-10-21T02:37:55.999Z,10.63
2018-10-21T02:41:38.729Z,10.63
2018-10-21T02:44:09.367Z,10.68
2018-10-21T02:46:39.073Z,10.65
2018-10-21T02:49:08.584Z,10.61
2018-10-21T02:51:37.158Z,10.64
2018-10-21T02:54:06.483Z,10.70
2018-10-21T02:56:35.286Z,10.72
2018-10-21T02:59:03.887Z,10.73
2018-10-21T03:01:32.569Z,10.68
2018-10-21T03:04:01.392Z,10.66
2018-10-21T03:06:30.179Z,10.69
2018-10-21T03:08:58.713Z,10.71
2018-10-21T03:11:27.289Z,10.71
2018-10-21T03:13:56.239Z,10.77
2018-10-21T03:16:24.859Z,10.74
2018-10-21T03:18:53.527Z,10.74
2018-10-21T03:21:22.155Z,10.76
2018-10-21T03:23:50.599Z,10.75
2018-10-21T03:26:19.282Z,10.75
2018-10-21T03:28:48.051Z,10.71
2018-10-21T03:31:16.837Z,10.74
2018-10-21T03:33:45.511Z,10.71
2018-10-21T03:36:13.952Z,10.79
2018-10-21T03:38:42.742Z,10.83
2018-10-21T03:41:11.323Z,10.82
2018-10-21T03:43:40.028Z,10.83
2018-10-21T03:46:09.106Z,10.82
2018-10-21T03:48:37.701Z,10.86
2018-10-21T03:51:06.282Z,10.79
2018-10-21T03:53:34.963Z,10.81
2018-10-21T03:56:03.673Z,10.84
2018-10-21T03:58:32.330Z,10.86
2018-10-21T04:01:01.055Z,10.82
2018-10-21T04:03:29.900Z,10.80
2018-10-21T04:05:58.387Z,10.78
2018-10-21T04:08:26.995Z,10.75
2018-10-21T04:10:55.758Z,10.77
2018-10-21T04:13:24.648Z,10.78
2018-10-21T04:15:53.225Z,10.68
2018-10-21T04:18:21.727Z,10.65
2018-10-21T04:20:50.345Z,10.63
2018-10-21T04:23:19.177Z,10.60
2018-10-21T04:25:47.659Z,10.57
2018-10-21T04:28:16.268Z,10.56
2018-10-21T04:30:44.929Z,10.60
2018-10-21T04:33:45.929Z,10.59
2018-10-21T04:36:24.213Z,10.54
2018-10-21T04:40:12.765Z,10.41
2018-10-21T04:42:41.382Z,10.39
2018-10-21T04:45:10.726Z,10.44
2018-10-21T04:47:39.559Z,10.37
2018-10-21T04:50:09.218Z,10.37
2018-10-21T04:52:38.084Z,10.37
2018-10-21T04:55:09.170Z,10.39
2018-10-21T04:57:39.052Z,10.35
2018-10-21T05:00:14.256Z,10.31
2018-10-21T05:02:42.927Z,10.25
2018-10-21T05:05:12.814Z,10.23
2018-10-21T05:07:42.030Z,10.18
2018-10-21T05:10:20.936Z,10.22
2018-10-21T05:12:49.483Z,10.06
2018-10-21T05:15:18.284Z,10.10
2018-10-21T05:17:47.107Z,10.13
2018-10-21T05:20:16.093Z,10.13
2018-10-21T05:22:44.839Z,10.11
2018-10-21T05:25:13.940Z,10.05
2018-10-21T05:27:43.074Z,9.98
2018-10-21T05:30:12.493Z,9.93
2018-10-21T05:32:41.384Z,9.91
2018-10-21T05:35:11.493Z,9.93
2018-10-21T05:37:40.400Z,9.92
2018-10-21T05:40:12.559Z,9.89
2018-10-21T05:42:41.550Z,9.79
2018-10-21T05:45:10.159Z,9.85
2018-10-21T05:47:39.609Z,9.82
2018-10-21T05:50:09.474Z,9.81
2018-10-21T05:52:38.760Z,9.78
2018-10-21T05:55:07.744Z,9.84
2018-10-21T05:57:36.337Z,9.84
2018-10-21T06:00:06.917Z,9.84
2018-10-21T06:02:35.843Z,9.90
2018-10-21T06:05:04.432Z,9.93
2018-10-21T06:07:33.090Z,9.97
2018-10-21T06:10:02.124Z,10.03
2018-10-21T06:12:30.699Z,10.00
2018-10-21T06:14:59.253Z,10.03
2018-10-21T06:17:31.414Z,10.06
2018-10-21T06:20:07.106Z,10.13
2018-10-21T06:22:40.335Z,10.10
2018-10-21T06:25:10.382Z,10.15
2018-10-21T06:27:39.927Z,10.15
2018-10-21T06:30:10.117Z,10.19
2018-10-21T06:32:38.959Z,10.24
2018-10-21T06:35:07.935Z,10.18
2018-10-21T06:37:36.463Z,10.20
2018-10-21T06:40:06.327Z,10.21
2018-10-21T06:42:34.922Z,10.22
2018-10-21T06:45:03.691Z,10.29
2018-10-21T06:47:32.285Z,10.29
2018-10-21T06:50:00.897Z,10.24
2018-10-21T06:52:29.443Z,10.32
2018-10-21T06:54:57.955Z,10.35
2018-10-21T06:57:26.579Z,10.35
2018-10-21T06:59:55.196Z,10.39
2018-10-21T07:02:23.668Z,10.37
2018-10-21T07:04:52.182Z,10.39
2018-10-21T07:07:20.760Z,10.39
2018-10-21T07:09:49.235Z,10.43
2018-10-21T07:12:17.726Z,10.45
2018-10-21T07:14:46.311Z,10.52
2018-10-21T07:17:14.771Z,10.49
2018-10-21T07:19:43.246Z,10.54
2018-10-21T07:22:12.128Z,10.48
2018-10-21T07:24:40.702Z,10.46
2018-10-21T07:27:09.226Z,10.49
2018-10-21T07:29:37.739Z,10.46
2018-10-21T07:32:06.294Z,10.52
2018-10-21T07:34:34.782Z,10.53
2018-10-21T07:37:03.353Z,10.63
2018-10-21T07:39:31.854Z,10.70
2018-10-21T07:42:00.451Z,10.79
2018-10-21T07:44:29.021Z,10.94
2018-10-21T07:46:57.486Z,10.98
2018-10-21T07:49:26.033Z,11.09
2018-10-21T07:51:54.547Z,11.17
2018-10-21T07:54:23.181Z,11.24
2018-10-21T07:56:51.751Z,11.41
2018-10-21T07:59:20.254Z,11.46
2018-10-21T08:01:48.771Z,11.52
2018-10-21T08:04:17.396Z,11.61
2018-10-21T08:06:56.984Z,11.78
2018-10-21T08:09:25.498Z,11.83
2018-10-21T08:11:53.975Z,11.75
2018-10-21T08:14:22.635Z,11.81
2018-10-21T08:16:51.155Z,11.83
2018-10-21T08:19:19.655Z,11.86
2018-10-21T08:21:48.121Z,11.89
2018-10-21T08:24:16.715Z,11.96
2018-10-21T08:26:45.183Z,12.00
2018-10-21T08:29:13.746Z,12.07
2018-10-21T08:31:42.231Z,12.13
2018-10-21T08:34:10.772Z,12.01
2018-10-21T08:36:39.310Z,12.20
2018-10-21T08:39:08.182Z,12.46
2018-10-21T08:41:36.677Z,12.49
2018-10-21T08:44:05.161Z,12.58
2018-10-21T08:46:33.748Z,12.55
2018-10-21T08:49:02.339Z,12.60
2018-10-21T08:51:30.798Z,12.81
2018-10-21T08:53:59.290Z,12.82
2018-10-21T08:56:27.867Z,13.10
2018-10-21T08:58:56.800Z,13.27
2018-10-21T09:01:26.463Z,13.36
2018-10-21T09:03:54.979Z,13.47
2018-10-21T09:06:23.461Z,13.38
2018-10-21T09:08:52.003Z,13.35
2018-10-21T09:11:20.530Z,13.34
2018-10-21T09:13:49.054Z,13.40
2018-10-21T09:16:17.668Z,13.51
2018-10-21T09:18:46.053Z,13.63
2018-10-21T09:21:14.540Z,13.80
2018-10-21T09:23:43.149Z,13.72
2018-10-21T09:26:11.679Z,13.53
2018-10-21T09:28:40.154Z,13.46
2018-10-21T09:31:08.726Z,13.59
2018-10-21T09:33:37.254Z,13.77
2018-10-21T09:36:05.899Z,13.75
2018-10-21T09:38:34.419Z,13.98
2018-10-21T09:41:03.038Z,14.30
2018-10-21T09:43:31.622Z,14.61
2018-10-21T09:46:00.228Z,14.98
2018-10-21T09:48:28.755Z,15.28
2018-10-21T09:50:57.223Z,15.28
2018-10-21T09:53:25.696Z,15.44
2018-10-21T09:55:54.207Z,15.40
2018-10-21T09:58:22.889Z,16.00
2018-10-21T10:00:56.980Z,16.48
2018-10-21T10:03:25.455Z,16.68
2018-10-21T10:05:53.963Z,16.54
2018-10-21T10:08:22.547Z,16.89
2018-10-21T10:10:51.020Z,17.13
2018-10-21T10:13:19.528Z,17.47
2018-10-21T10:15:48.006Z,17.95
2018-10-21T10:18:16.535Z,18.20
2018-10-21T10:20:45.044Z,17.31
2018-10-21T10:23:13.525Z,16.74
2018-10-21T10:25:42.026Z,17.17
2018-10-21T10:28:10.649Z,16.76
2018-10-21T10:30:39.213Z,17.36
2018-10-21T10:33:07.640Z,17.59
2018-10-21T10:35:36.135Z,18.21
2018-10-21T10:38:04.688Z,18.52
2018-10-21T10:40:33.239Z,18.61
2018-10-21T10:43:01.778Z,18.56
2018-10-21T10:45:31.293Z,18.49
2018-10-21T10:47:59.780Z,19.48
2018-10-21T10:50:28.375Z,19.79
2018-10-21T10:52:56.905Z,19.99
2018-10-21T10:55:29.608Z,19.57
2018-10-21T10:57:58.197Z,20.28
2018-10-21T11:00:26.615Z,21.13
2018-10-21T11:02:55.172Z,21.86
2018-10-21T11:05:23.753Z,22.44
2018-10-21T11:07:52.244Z,22.81
2018-10-21T11:10:20.786Z,23.28
2018-10-21T11:12:49.670Z,24.32
2018-10-21T11:15:18.278Z,24.27
2018-10-21T11:17:46.775Z,23.68
2018-10-21T11:20:15.330Z,22.61
2018-10-21T11:22:43.938Z,22.02
2018-10-21T11:25:12.534Z,19.98
2018-10-21T11:27:41.059Z,19.41
2018-10-21T11:30:09.533Z,20.89
2018-10-21T11:32:38.150Z,21.95
2018-10-21T11:35:07.100Z,22.75
2018-10-21T11:37:35.760Z,23.12
2018-10-21T11:40:04.382Z,22.72
2018-10-21T11:42:33.074Z,22.12
2018-10-21T11:45:01.876Z,22.53
2018-10-21T11:47:30.517Z,23.24
2018-10-21T11:49:59.088Z,24.23
2018-10-21T11:52:27.642Z,24.70
2018-10-21T11:54:56.169Z,24.47
2018-10-21T11:57:24.646Z,25.12
2018-10-21T11:59:53.235Z,24.18
2018-10-21T12:02:21.834Z,23.13
2018-10-21T12:04:50.371Z,23.19
2018-10-21T12:07:19.142Z,23.98
2018-10-21T12:09:47.550Z,23.19
2018-10-21T12:12:16.042Z,23.35
2018-10-21T12:14:44.523Z,25.12
2018-10-21T12:17:13.007Z,26.26
2018-10-21T12:19:41.529Z,26.17
2018-10-21T12:22:10.087Z,26.15
2018-10-21T12:24:38.635Z,25.98
2018-10-21T12:27:07.158Z,26.69
2018-10-21T12:29:36.475Z,27.45
2018-10-21T12:32:05.145Z,27.13
2018-10-21T12:34:34.002Z,27.24
2018-10-21T12:37:02.631Z,27.30
2018-10-21T12:39:31.150Z,26.78
2018-10-21T12:41:59.699Z,26.67
2018-10-21T12:44:28.228Z,26.38
2018-10-21T12:46:56.762Z,26.36
2018-10-21T12:49:25.343Z,27.11
2018-10-21T12:51:53.934Z,27.89
2018-10-21T12:54:22.485Z,28.11
2018-10-21T12:56:51.071Z,28.22
2018-10-21T12:59:19.558Z,28.51
2018-10-21T13:01:48.047Z,28.02
2018-10-21T13:04:16.677Z,29.02
2018-10-21T13:06:45.146Z,28.45
2018-10-21T13:09:13.697Z,27.67
2018-10-21T13:11:42.315Z,28.76
2018-10-21T13:14:10.835Z,29.41
2018-10-21T13:16:39.352Z,29.07
2018-10-21T13:19:07.986Z,27.48
2018-10-21T13:21:36.591Z,29.06
2018-10-21T13:24:05.106Z,29.36
2018-10-21T13:26:33.676Z,29.98
2018-10-21T13:29:02.155Z,30.49
2018-10-21T13:31:30.798Z,29.99
2018-10-21T13:33:59.333Z,29.45
2018-10-21T13:36:28.761Z,29.46
2018-10-21T13:38:57.279Z,30.34
2018-10-21T13:41:25.867Z,31.03
2018-10-21T13:43:54.364Z,30.81
2018-10-21T13:46:22.947Z,31.52
2018-10-21T13:48:51.785Z,30.75
2018-10-21T13:51:20.367Z,31.32
2018-10-21T13:53:48.919Z,31.38
2018-10-21T13:56:17.527Z,29.71
2018-10-21T13:58:46.080Z,30.07
2018-10-21T14:01:14.720Z,30.03
2018-10-21T14:03:43.447Z,29.80
2018-10-21T14:06:11.936Z,30.21
2018-10-21T14:08:40.435Z,29.38
2018-10-21T14:11:09.015Z,29.97
2018-10-21T14:13:37.642Z,28.82
2018-10-21T14:16:06.822Z,28.27
2018-10-21T14:18:35.313Z,28.17
2018-10-21T14:21:03.850Z,27.66
2018-10-21T14:23:32.614Z,28.07
2018-10-21T14:26:01.133Z,27.89
2018-10-21T14:28:29.745Z,28.48
2018-10-21T14:30:58.449Z,28.75
2018-10-21T14:33:26.940Z,28.66
2018-10-21T14:35:55.512Z,28.49
2018-10-21T14:38:24.106Z,28.10
2018-10-21T14:40:52.630Z,28.71
2018-10-21T14:43:22.212Z,28.30
2018-10-21T14:45:50.771Z,28.79
2018-10-21T14:48:19.559Z,28.44
2018-10-21T14:50:47.951Z,28.30
2018-10-21T14:53:16.470Z,27.82
2018-10-21T14:55:45.304Z,26.43
2018-10-21T14:58:13.878Z,27.53
2018-10-21T15:00:42.456Z,27.24
2018-10-21T15:03:10.925Z,26.27
2018-10-21T15:05:39.447Z,26.40
2018-10-21T15:08:08.106Z,26.41
2018-10-21T15:10:36.623Z,25.16
2018-10-21T15:13:05.449Z,24.92
2018-10-21T15:15:35.008Z,23.18
2018-10-21T15:18:04.154Z,21.12
2018-10-21T15:20:32.614Z,19.56
2018-10-21T15:23:01.176Z,18.69
2018-10-21T15:25:29.709Z,17.98
2018-10-21T15:27:58.258Z,17.63
2018-10-21T15:30:26.832Z,17.07
2018-10-21T15:32:55.387Z,16.74
2018-10-21T15:35:23.891Z,16.58
2018-10-21T15:37:52.467Z,16.26
2018-10-21T15:40:21.025Z,15.88
2018-10-21T15:42:49.454Z,15.79
2018-10-21T15:45:18.070Z,15.68
2018-10-21T15:47:46.611Z,15.46
2018-10-21T15:50:15.169Z,15.31
2018-10-21T15:52:43.705Z,15.12
2018-10-21T15:55:12.349Z,14.89
2018-10-21T15:57:40.862Z,14.66
2018-10-21T16:00:11.146Z,14.44
2018-10-21T16:02:39.781Z,14.32
2018-10-21T16:05:09.284Z,14.16
2018-10-21T16:07:37.774Z,13.99
2018-10-21T16:10:07.528Z,13.86
2018-10-21T16:12:36.099Z,13.75
2018-10-21T16:15:05.051Z,13.69
2018-10-21T16:17:33.528Z,13.53
2018-10-21T16:20:02.063Z,13.36
2018-10-21T16:22:30.615Z,13.17
2018-10-21T16:24:59.115Z,13.04
2018-10-21T16:27:27.643Z,12.88
2018-10-21T16:29:56.489Z,12.75
2018-10-21T16:32:25.042Z,12.54
2018-10-21T16:34:53.559Z,12.34
2018-10-21T16:37:22.165Z,12.23
2018-10-21T16:39:50.731Z,12.12
2018-10-21T16:42:19.371Z,12.00
2018-10-21T16:44:47.842Z,12.03
2018-10-21T16:47:16.511Z,11.93
2018-10-21T16:49:45.183Z,11.81
2018-10-21T16:52:13.808Z,11.72
2018-10-21T16:54:42.475Z,11.59
2018-10-21T16:57:11.125Z,11.48
2018-10-21T16:59:39.641Z,11.36
2018-10-21T17:02:08.183Z,11.28
2018-10-21T17:04:36.747Z,11.19
2018-10-21T17:07:06.000Z,11.09
2018-10-21T17:09:34.728Z,11.10
2018-10-21T17:12:03.297Z,11.02
2018-10-21T17:14:31.818Z,10.94
2018-10-21T17:17:00.475Z,10.87
2018-10-21T17:19:29.039Z,10.78
2018-10-21T17:21:57.593Z,10.71
2018-10-21T17:24:26.296Z,10.65
2018-10-21T17:26:54.832Z,10.60
2018-10-21T17:29:23.661Z,10.54
2018-10-21T17:31:52.185Z,10.48
2018-10-21T17:34:20.831Z,10.42
2018-10-21T17:36:49.503Z,10.35
2018-10-21T17:39:18.148Z,10.30
2018-10-21T17:41:46.634Z,10.23
2018-10-21T17:44:15.403Z,10.17
2018-10-21T17:46:44.077Z,10.13
2018-10-21T17:49:12.767Z,10.12
2018-10-21T17:51:41.253Z,10.09
2018-10-21T17:54:09.755Z,10.01
2018-10-21T17:56:43.695Z,9.92
2018-10-21T17:59:12.374Z,9.87
2018-10-21T18:01:41.070Z,9.82
2018-10-21T18:04:09.770Z,9.74
2018-10-21T18:06:38.315Z,9.65
2018-10-21T18:09:08.971Z,9.57
2018-10-21T18:11:37.730Z,9.52
2018-10-21T18:14:06.534Z,9.44
2018-10-21T18:16:35.374Z,9.36
2018-10-21T18:19:03.972Z,9.36
2018-10-21T18:21:32.623Z,9.29
2018-10-21T18:24:01.176Z,9.24
2018-10-21T18:26:29.891Z,9.19
2018-10-21T18:28:58.470Z,9.15
2018-10-21T18:31:27.204Z,9.07
2018-10-21T18:33:55.810Z,8.99
2018-10-21T18:36:24.693Z,8.93
2018-10-21T18:38:53.375Z,8.90
2018-10-21T18:41:21.983Z,8.85
2018-10-21T18:43:50.634Z,8.81
2018-10-21T18:46:19.335Z,8.72
2018-10-21T18:48:48.191Z,8.71
2018-10-21T18:51:16.762Z,8.65
2018-10-21T18:53:45.460Z,8.61
2018-10-21T18:56:14.090Z,8.68
2018-10-21T18:58:42.945Z,8.66
2018-10-21T19:01:11.527Z,8.59
2018-10-21T19:03:40.377Z,8.60
2018-10-21T19:06:08.986Z,8.59
2018-10-21T19:08:37.615Z,8.57
2018-10-21T19:11:06.403Z,8.49
2018-10-21T19:13:35.100Z,8.42
2018-10-21T19:16:03.757Z,8.38
2018-10-21T19:18:32.343Z,8.29
2018-10-21T19:21:02.506Z,8.23
2018-10-21T19:23:31.345Z,8.26
2018-10-21T19:25:59.939Z,8.23
2018-10-21T19:28:28.686Z,8.15
2018-10-21T19:30:57.429Z,8.08
2018-10-21T19:33:26.277Z,8.03
2018-10-21T19:35:54.889Z,8.03
2018-10-21T19:38:23.491Z,7.98
2018-10-21T19:40:52.259Z,7.88
2018-10-21T19:43:20.974Z,7.81
2018-10-21T19:45:49.489Z,7.67
2018-10-21T19:48:18.040Z,7.72
2018-10-21T19:50:46.726Z,7.64
2018-10-21T19:53:15.333Z,7.63
2018-10-21T19:55:44.171Z,7.57
2018-10-21T19:58:12.763Z,7.55
2018-10-21T20:00:41.385Z,7.51
2018-10-21T20:03:09.986Z,7.57
2018-10-21T20:05:38.734Z,7.60
2018-10-21T20:08:07.336Z,7.53
2018-10-21T20:10:36.115Z,7.44
2018-10-21T20:13:04.825Z,7.35
2018-10-21T20:15:33.767Z,7.32
2018-10-21T20:18:02.380Z,7.31
2018-10-21T20:20:31.850Z,7.24
2018-10-21T20:23:00.476Z,7.19
2018-10-21T20:25:29.119Z,7.16
2018-10-21T20:27:57.818Z,7.21
2018-10-21T20:30:27.455Z,7.22
2018-10-21T20:32:56.144Z,7.18
2018-10-21T20:35:25.061Z,7.09
2018-10-21T20:37:53.669Z,7.10
2018-10-21T20:40:22.300Z,7.08
2018-10-21T20:42:50.984Z,7.06
2018-10-21T20:45:19.720Z,7.04
2018-10-21T20:47:48.441Z,6.97
2018-10-21T20:50:17.109Z,6.88
2018-10-21T20:52:45.953Z,6.78
2018-10-21T20:55:14.622Z,6.73
2018-10-21T20:57:43.279Z,6.83
2018-10-21T21:00:11.957Z,6.90
2018-10-21T21:02:40.578Z,6.84
2018-10-21T21:05:09.930Z,6.77
2018-10-21T21:07:38.643Z,6.69
2018-10-21T21:10:08.182Z,6.74
2018-10-21T21:12:37.006Z,6.67
2018-10-21T21:15:06.383Z,6.59
2018-10-21T21:17:35.233Z,6.56
2018-10-21T21:20:03.839Z,6.50
2018-10-21T21:22:32.563Z,6.54
2018-10-21T21:25:01.096Z,6.46
2018-10-21T21:27:29.870Z,6.45
2018-10-21T21:29:58.458Z,6.36
2018-10-21T21:32:27.125Z,6.28
2018-10-21T21:34:55.678Z,6.22
2018-10-21T21:37:24.302Z,6.15
2018-10-21T21:39:52.936Z,6.13
2018-10-21T21:42:21.615Z,6.16
2018-10-21T21:44:50.230Z,6.16
2018-10-21T21:47:18.863Z,6.18
2018-10-21T21:49:47.457Z,6.20
2018-10-21T21:52:16.157Z,6.19
2018-10-21T21:54:44.682Z,6.09
2018-10-21T21:57:13.206Z,6.04
2018-10-21T21:59:41.874Z,6.00
2018-10-21T22:02:10.393Z,5.98
2018-10-21T22:04:38.934Z,5.93
2018-10-21T22:07:07.570Z,6.01
2018-10-21T22:09:36.095Z,5.98
2018-10-21T22:12:04.881Z,6.02
2018-10-21T22:14:33.443Z,6.01
2018-10-21T22:17:02.131Z,6.03
2018-10-21T22:19:30.985Z,5.97
2018-10-21T22:21:59.671Z,5.99
2018-10-21T22:24:28.248Z,5.89
2018-10-21T22:26:56.984Z,5.93
2018-10-21T22:29:25.690Z,5.85
2018-10-21T22:31:54.216Z,5.93
2018-10-21T22:34:22.943Z,5.91
2018-10-21T22:36:53.419Z,5.92
2018-10-21T22:39:22.111Z,5.85
2018-10-21T22:41:50.839Z,5.75
2018-10-21T22:44:19.590Z,5.73
2018-10-21T22:46:48.235Z,5.64
2018-10-21T22:49:16.779Z,5.59
2018-10-21T22:51:45.716Z,5.54
2018-10-21T22:54:14.329Z,5.48
2018-10-21T22:56:42.991Z,5.44
2018-10-21T22:59:11.666Z,5.43
2018-10-21T23:01:40.259Z,5.39
2018-10-21T23:04:08.897Z,5.44
2018-10-21T23:06:37.370Z,5.48
2018-10-21T23:09:08.466Z,5.45
2018-10-21T23:11:37.150Z,5.40
2018-10-21T23:14:05.775Z,5.37
2018-10-21T23:16:34.578Z,5.45
2018-10-21T23:19:14.538Z,5.41
2018-10-21T23:21:43.161Z,5.48
2018-10-21T23:24:12.103Z,5.41
2018-10-21T23:26:40.667Z,5.38
2018-10-21T23:29:09.534Z,5.33
2018-10-21T23:31:38.360Z,5.44
2018-10-21T23:34:07.201Z,5.47
2018-10-21T23:36:35.844Z,5.42
2018-10-21T23:39:04.982Z,5.40
2018-10-21T23:41:33.723Z,5.31
2018-10-21T23:44:02.351Z,5.35
2018-10-21T23:46:30.971Z,5.33
2018-10-21T23:49:00.199Z,5.27
2018-10-21T23:51:28.832Z,5.18
2018-10-21T23:53:57.734Z,5.18
2018-10-21T23:56:26.449Z,5.14
2018-10-21T23:58:56.028Z,5.09
